Time;durP1;ratioP1;P1;durP2;ratioP2;P2;SDS_P1;SDS_P2;PMS_P1;PMS_P2;Temp;Humidity;BMP_temperature;BMP_pressure;BME280_temperature;BME280_humidity;BME280_pressure;Samples;Min_cycle;Max_cycle;Signal;HPM_P1;HPM_P2
2024/02/27 00:01:10;;;;;;;8.90;7.07;;;7.40;99.90;;;;;;5018595;28;20746;-69
2024/02/27 00:03:35;;;;;;;9.17;6.80;;;7.50;99.90;;;;;;5022317;28;20433;-70
2024/02/27 00:06:03;;;;;;;9.53;7.70;;;7.50;99.90;;;;;;5024357;28;20202;-69
2024/02/27 00:08:28;;;;;;;8.73;7.73;;;7.50;99.90;;;;;;5024755;28;20199;-72
2024/02/27 00:10:54;;;;;;;10.77;7.50;;;7.50;99.90;;;;;;5023867;28;20425;-71
2024/02/27 00:13:20;;;;;;;9.40;8.00;;;7.50;99.90;;;;;;4996573;28;20206;-70
2024/02/27 00:15:45;;;;;;;7.77;6.97;;;7.40;99.90;;;;;;5002688;28;20222;-70
2024/02/27 00:18:16;;;;;;;8.13;6.50;;;7.40;99.90;;;;;;5017670;28;20255;-71
2024/02/27 00:20:42;;;;;;;10.50;7.57;;;7.30;99.90;;;;;;5017524;28;20178;-69
2024/02/27 00:23:07;;;;;;;11.17;7.60;;;7.30;99.90;;;;;;5016233;28;20902;-70
2024/02/27 00:25:33;;;;;;;8.73;6.73;;;7.20;99.90;;;;;;5018739;28;20461;-71
2024/02/27 00:27:59;;;;;;;9.50;7.70;;;7.20;99.90;;;;;;4989412;28;20499;-70
2024/02/27 00:30:24;;;;;;;11.83;8.40;;;7.20;99.90;;;;;;5017720;28;20187;-71
2024/02/27 00:32:52;;;;;;;9.30;7.83;;;7.20;99.90;;;;;;5018390;28;20658;-70
2024/02/27 00:35:18;;;;;;;9.13;8.20;;;7.20;99.90;;;;;;5013584;28;20209;-70
2024/02/27 00:37:44;;;;;;;8.47;7.20;;;7.10;99.90;;;;;;5018689;28;20480;-69
2024/02/27 00:40:12;;;;;;;10.33;8.43;;;7.00;99.90;;;;;;5019029;28;20422;-70
2024/02/27 00:42:38;;;;;;;10.40;9.03;;;7.00;99.90;;;;;;5004087;28;20641;-70
2024/02/27 00:45:04;;;;;;;11.40;8.10;;;7.00;99.90;;;;;;5025280;28;20418;-69
2024/02/27 00:47:29;;;;;;;10.93;9.73;;;7.00;99.90;;;;;;5020496;28;20442;-70
2024/02/27 00:49:55;;;;;;;11.10;9.70;;;7.00;99.90;;;;;;5014901;28;20452;-70
2024/02/27 00:52:21;;;;;;;12.17;10.00;;;6.90;99.90;;;;;;5017520;28;20187;-70
2024/02/27 00:54:48;;;;;;;14.00;9.67;;;6.90;99.90;;;;;;5017372;28;20261;-70
2024/02/27 00:57:13;;;;;;;12.00;9.40;;;6.90;99.90;;;;;;4997219;28;20716;-70
2024/02/27 00:59:39;;;;;;;10.50;9.40;;;6.90;99.90;;;;;;5020717;28;20414;-70
2024/02/27 01:02:05;;;;;;;13.70;9.73;;;6.90;99.90;;;;;;5018226;28;20179;-70
2024/02/27 01:04:32;;;;;;;9.83;8.83;;;6.90;99.90;;;;;;5018670;28;20191;-69
2024/02/27 01:06:58;;;;;;;13.53;10.63;;;6.90;99.90;;;;;;5024294;28;20404;-69
2024/02/27 01:09:23;;;;;;;13.07;10.77;;;6.90;99.90;;;;;;5024171;28;20426;-68
2024/02/27 01:11:49;;;;;;;13.03;10.23;;;6.80;99.90;;;;;;5024789;28;20483;-69
2024/02/27 01:14:15;;;;;;;15.70;12.40;;;6.80;99.90;;;;;;5025561;28;20656;-71
2024/02/27 01:16:42;;;;;;;12.20;10.83;;;6.80;99.90;;;;;;5023941;28;20222;-69
2024/02/27 01:19:10;;;;;;;12.30;9.93;;;6.80;99.90;;;;;;5022562;28;20190;-69
2024/02/27 01:21:36;;;;;;;14.23;12.30;;;6.80;99.90;;;;;;5018153;28;20509;-69
2024/02/27 01:24:06;;;;;;;15.10;12.43;;;6.90;99.90;;;;;;5022154;28;20425;-70
2024/02/27 01:26:31;;;;;;;14.70;11.97;;;6.90;99.90;;;;;;5024199;28;20225;-70
2024/02/27 01:28:57;;;;;;;16.13;11.83;;;6.90;99.90;;;;;;5024770;28;20410;-69
2024/02/27 01:31:23;;;;;;;12.47;11.13;;;6.90;99.90;;;;;;4989889;28;20507;-69
2024/02/27 01:33:48;;;;;;;16.70;12.77;;;6.90;99.90;;;;;;4997734;28;20202;-70
2024/02/27 01:36:14;;;;;;;16.70;13.80;;;6.90;99.90;;;;;;5002048;28;20471;-70
2024/02/27 01:38:41;;;;;;;15.10;13.60;;;6.90;99.90;;;;;;5024558;28;20205;-71
2024/02/27 01:41:06;;;;;;;15.50;13.17;;;6.90;99.90;;;;;;4997294;28;20489;-69
2024/02/27 01:43:32;;;;;;;14.60;11.60;;;6.90;99.90;;;;;;5025540;28;20179;-68
2024/02/27 01:46:12;;;;;;;14.47;12.57;;;6.90;99.90;;;;;;5025146;28;20221;-69
2024/02/27 01:48:38;;;;;;;13.40;12.00;;;6.90;99.90;;;;;;5018709;28;20229;-70
2024/02/27 01:51:05;;;;;;;13.83;11.70;;;6.90;99.90;;;;;;5021326;28;20465;-69
2024/02/27 01:53:30;;;;;;;15.40;12.73;;;6.90;99.90;;;;;;5022466;28;20425;-69
2024/02/27 01:55:57;;;;;;;16.83;15.00;;;6.90;99.90;;;;;;5025473;28;20757;-69
2024/02/27 01:58:23;;;;;;;15.60;13.03;;;6.90;99.90;;;;;;5025735;28;20594;-70
2024/02/27 02:00:49;;;;;;;13.90;12.37;;;6.90;99.90;;;;;;5025117;28;20429;-69
2024/02/27 02:03:17;;;;;;;19.97;14.73;;;6.90;99.90;;;;;;5023759;28;20841;-69
2024/02/27 02:05:43;;;;;;;15.17;13.07;;;6.90;99.90;;;;;;5021215;28;20490;-69
2024/02/27 02:08:09;;;;;;;15.40;13.23;;;6.90;99.90;;;;;;5022039;28;20691;-69
2024/02/27 02:10:35;;;;;;;16.13;12.37;;;6.90;99.90;;;;;;5022470;28;20190;-69
2024/02/27 02:13:01;;;;;;;15.30;13.37;;;6.80;99.90;;;;;;5022550;28;20179;-70
2024/02/27 02:15:27;;;;;;;15.43;13.00;;;6.80;99.90;;;;;;5020242;28;20183;-69
2024/02/27 02:17:53;;;;;;;15.57;13.07;;;6.80;99.90;;;;;;4999406;28;20757;-70
2024/02/27 02:20:18;;;;;;;14.67;12.30;;;6.80;99.90;;;;;;4997257;28;20556;-69
2024/02/27 02:22:44;;;;;;;15.80;13.30;;;6.80;99.90;;;;;;5008888;28;20330;-69
2024/02/27 02:25:15;;;;;;;16.70;12.90;;;6.80;99.90;;;;;;5020984;28;20195;-69
2024/02/27 02:27:45;;;;;;;16.30;13.23;;;6.80;99.90;;;;;;5020900;28;20430;-70
2024/02/27 02:30:14;;;;;;;15.83;14.00;;;6.80;99.90;;;;;;5021010;28;20434;-69
2024/02/27 02:32:49;;;;;;;19.37;13.97;;;6.80;99.90;;;;;;5020766;28;20426;-69
2024/02/27 02:35:16;;;;;;;16.80;14.30;;;6.80;99.90;;;;;;5013617;28;20430;-69
2024/02/27 02:37:42;;;;;;;19.60;16.50;;;6.80;99.90;;;;;;5019865;28;20744;-68
2024/02/27 02:40:08;;;;;;;19.17;14.80;;;6.80;99.90;;;;;;5019213;28;20861;-69
2024/02/27 02:42:34;;;;;;;21.07;16.10;;;6.80;99.90;;;;;;5019612;28;20410;-68
2024/02/27 02:45:00;;;;;;;17.67;15.40;;;6.80;99.90;;;;;;5018759;28;20429;-68
2024/02/27 02:47:26;;;;;;;19.87;16.10;;;6.80;99.90;;;;;;5018548;28;20437;-70
2024/02/27 02:49:51;;;;;;;16.90;14.00;;;6.80;99.90;;;;;;4993714;28;20203;-69
2024/02/27 02:52:17;;;;;;;21.63;15.57;;;6.80;99.90;;;;;;5018506;28;20202;-68
2024/02/27 02:54:42;;;;;;;17.70;15.40;;;6.70;99.90;;;;;;5018527;28;20182;-70
2024/02/27 02:57:08;;;;;;;20.00;15.00;;;6.70;99.90;;;;;;5018839;28;20218;-68
2024/02/27 02:59:34;;;;;;;22.27;17.37;;;6.70;99.90;;;;;;5019376;28;20322;-69
2024/02/27 03:02:00;;;;;;;19.83;15.70;;;6.70;99.90;;;;;;5019267;28;20489;-68
2024/02/27 03:04:25;;;;;;;23.37;16.33;;;6.70;99.90;;;;;;5014179;28;20214;-70
2024/02/27 03:06:51;;;;;;;21.97;14.80;;;6.70;99.90;;;;;;5018011;28;20214;-70
2024/02/27 03:09:18;;;;;;;20.00;15.10;;;6.70;99.90;;;;;;4999418;28;20194;-69
2024/02/27 03:11:43;;;;;;;21.27;15.67;;;6.70;99.90;;;;;;5017597;28;20197;-70
2024/02/27 03:14:09;;;;;;;17.23;14.77;;;6.70;99.90;;;;;;5015689;28;20506;-69
2024/02/27 03:16:35;;;;;;;20.53;15.70;;;6.70;99.90;;;;;;5017348;28;20207;-70
2024/02/27 03:19:02;;;;;;;19.60;15.77;;;6.70;99.90;;;;;;4995058;28;20254;-69
2024/02/27 03:21:28;;;;;;;22.90;17.00;;;6.60;99.90;;;;;;5021213;28;20274;-70
2024/02/27 03:23:53;;;;;;;19.97;16.23;;;6.60;99.90;;;;;;5018362;28;20452;-70
2024/02/27 03:26:21;;;;;;;22.57;17.10;;;6.60;99.90;;;;;;5018023;28;20218;-69
2024/02/27 03:28:47;;;;;;;24.87;18.57;;;6.60;99.90;;;;;;5018002;28;20203;-69
2024/02/27 03:31:12;;;;;;;25.37;19.67;;;6.60;99.90;;;;;;5017754;28;20409;-69
2024/02/27 03:33:38;;;;;;;26.90;19.03;;;6.60;99.90;;;;;;5015025;28;20218;-69
2024/02/27 03:36:04;;;;;;;25.40;19.20;;;6.60;99.90;;;;;;5020871;28;20211;-69
2024/02/27 03:38:31;;;;;;;24.43;18.90;;;6.60;99.90;;;;;;5025335;28;20183;-69
2024/02/27 03:40:57;;;;;;;26.83;19.70;;;6.60;99.90;;;;;;5005037;28;20481;-70
2024/02/27 03:43:23;;;;;;;27.30;19.60;;;6.60;99.90;;;;;;5018578;28;20418;-69
2024/02/27 03:45:48;;;;;;;27.77;19.80;;;6.50;99.90;;;;;;5018428;28;20202;-70
2024/02/27 03:48:14;;;;;;;23.63;18.27;;;6.50;99.90;;;;;;5015534;28;20188;-70
2024/02/27 03:50:39;;;;;;;29.20;20.00;;;6.50;99.90;;;;;;5016649;28;20265;-70
2024/02/27 03:53:05;;;;;;;25.23;19.23;;;6.40;99.90;;;;;;5010869;28;20183;-68
2024/02/27 03:55:31;;;;;;;26.97;19.70;;;6.40;99.90;;;;;;5017549;28;20206;-69
2024/02/27 03:57:56;;;;;;;28.50;19.90;;;6.30;99.90;;;;;;5017879;28;20214;-70
2024/02/27 04:00:22;;;;;;;28.53;20.77;;;6.30;99.90;;;;;;5017635;28;20208;-70
2024/02/27 04:02:47;;;;;;;28.53;19.70;;;6.20;99.90;;;;;;5017177;28;20183;-70
2024/02/27 04:05:13;;;;;;;25.63;19.00;;;6.10;99.90;;;;;;5014914;28;20179;-70
2024/02/27 04:07:39;;;;;;;27.73;20.83;;;6.10;99.90;;;;;;5017103;28;20454;-70
2024/02/27 04:10:06;;;;;;;29.13;20.50;;;6.00;99.90;;;;;;5017433;28;20190;-70
2024/02/27 04:12:33;;;;;;;23.03;17.80;;;6.00;99.90;;;;;;5020053;28;20422;-70
2024/02/27 04:14:58;;;;;;;27.97;21.13;;;6.00;99.90;;;;;;5021946;28;20871;-69
2024/02/27 04:17:24;;;;;;;25.87;19.53;;;6.00;99.90;;;;;;5022674;28;20469;-69
2024/02/27 04:19:49;;;;;;;30.10;21.17;;;6.00;99.90;;;;;;5014295;28;20493;-69
2024/02/27 04:22:15;;;;;;;25.20;19.60;;;6.10;99.90;;;;;;5012828;28;20191;-70
2024/02/27 04:24:41;;;;;;;27.83;19.73;;;6.10;99.90;;;;;;5017124;28;20256;-69
2024/02/27 04:27:06;;;;;;;25.67;19.23;;;6.10;99.90;;;;;;5017034;28;20229;-69
2024/02/27 04:29:32;;;;;;;28.70;21.43;;;6.10;99.90;;;;;;5017118;28;20189;-71
2024/02/27 04:31:57;;;;;;;28.00;19.93;;;6.10;99.90;;;;;;5016585;28;20269;-70
2024/02/27 04:34:23;;;;;;;25.60;17.97;;;6.00;99.90;;;;;;4971300;28;20204;-69
2024/02/27 04:36:49;;;;;;;27.03;20.93;;;6.00;99.90;;;;;;5017736;28;20479;-71
2024/02/27 04:39:15;;;;;;;27.10;20.13;;;6.00;99.90;;;;;;5016140;28;20214;-68
2024/02/27 04:41:40;;;;;;;25.93;20.10;;;6.00;99.90;;;;;;5017289;28;20695;-70
2024/02/27 04:44:09;;;;;;;26.70;20.40;;;6.00;99.90;;;;;;5016949;28;20453;-69
2024/02/27 04:46:34;;;;;;;25.90;18.80;;;6.00;99.90;;;;;;5017475;28;20222;-70
2024/02/27 04:49:00;;;;;;;27.10;19.60;;;6.10;99.90;;;;;;5011066;28;20418;-68
2024/02/27 04:51:25;;;;;;;28.17;21.10;;;6.10;99.90;;;;;;5015322;28;20218;-69
2024/02/27 04:53:51;;;;;;;30.03;22.47;;;6.10;99.90;;;;;;5016702;28;20183;-69
2024/02/27 04:56:16;;;;;;;27.07;20.00;;;6.10;99.90;;;;;;5017028;28;20248;-69
2024/02/27 04:58:42;;;;;;;26.50;19.33;;;6.10;99.90;;;;;;5018030;28;20187;-69
2024/02/27 05:01:14;;;;;;;27.83;19.77;;;6.10;99.90;;;;;;5018007;28;20267;-69
2024/02/27 05:03:40;;;;;;;30.10;21.53;;;6.10;99.90;;;;;;5006388;28;20274;-70
2024/02/27 05:06:06;;;;;;;25.60;19.90;;;6.20;99.90;;;;;;5018775;28;20465;-70
2024/02/27 05:08:31;;;;;;;28.10;19.77;;;6.20;99.90;;;;;;5020665;28;20254;-70
2024/02/27 05:10:57;;;;;;;27.87;19.90;;;6.20;99.90;;;;;;5017710;28;20426;-71
2024/02/27 05:13:23;;;;;;;34.00;21.73;;;6.20;99.90;;;;;;5017153;28;20200;-69
2024/02/27 05:15:49;;;;;;;26.93;20.37;;;6.20;99.90;;;;;;5018068;28;20210;-71
2024/02/27 05:18:14;;;;;;;29.23;21.60;;;6.20;99.90;;;;;;5015423;28;20418;-70
2024/02/27 05:20:40;;;;;;;27.03;21.33;;;6.20;99.90;;;;;;5018924;28;20186;-69
2024/02/27 05:23:05;;;;;;;27.87;19.73;;;6.20;99.90;;;;;;5019201;28;20632;-70
2024/02/27 05:25:32;;;;;;;25.97;19.83;;;6.10;99.90;;;;;;5021811;28;20191;-73
2024/02/27 05:27:57;;;;;;;30.83;22.00;;;6.10;99.90;;;;;;4999242;28;20202;-69
2024/02/27 05:30:23;;;;;;;29.17;20.93;;;6.10;99.90;;;;;;5017151;28;20468;-70
2024/02/27 05:32:49;;;;;;;26.43;21.37;;;6.00;99.90;;;;;;5016876;28;20337;-70
2024/02/27 05:35:14;;;;;;;31.27;22.50;;;6.00;99.90;;;;;;5011812;28;20198;-71
2024/02/27 05:37:40;;;;;;;27.73;19.60;;;5.90;99.90;;;;;;5017471;28;20258;-70
2024/02/27 05:40:12;;;;;;;34.30;23.07;;;5.80;99.90;;;;;;5017546;28;20191;-71
2024/02/27 05:42:38;;;;;;;29.93;20.77;;;5.80;99.90;;;;;;5016774;28;20310;-69
2024/02/27 05:45:04;;;;;;;27.53;21.17;;;5.90;99.90;;;;;;5022780;28;20487;-69
2024/02/27 05:47:30;;;;;;;35.40;23.77;;;5.90;99.90;;;;;;5022797;28;20217;-71
2024/02/27 05:49:56;;;;;;;29.00;21.63;;;5.90;99.90;;;;;;5021255;28;20210;-70
2024/02/27 05:52:21;;;;;;;28.80;21.93;;;5.90;99.90;;;;;;5026954;28;20214;-70
2024/02/27 05:54:47;;;;;;;29.77;21.17;;;5.90;99.90;;;;;;5026343;28;20203;-69
2024/02/27 05:57:13;;;;;;;29.53;20.37;;;5.90;99.90;;;;;;5024476;28;20261;-71
2024/02/27 05:59:39;;;;;;;30.50;21.20;;;5.90;99.90;;;;;;5021707;28;20466;-69
2024/02/27 06:02:05;;;;;;;32.40;22.73;;;5.90;99.90;;;;;;5020350;28;20442;-71
2024/02/27 06:04:31;;;;;;;26.93;19.83;;;5.90;99.90;;;;;;5020069;28;20179;-72
2024/02/27 06:06:58;;;;;;;29.80;21.50;;;5.90;99.90;;;;;;5020183;28;20452;-70
2024/02/27 06:09:24;;;;;;;26.93;19.73;;;5.80;99.90;;;;;;5016880;28;20477;-74
2024/02/27 06:11:49;;;;;;;33.00;21.77;;;5.80;99.90;;;;;;4986476;28;20419;-70
2024/02/27 06:14:15;;;;;;;27.20;20.47;;;5.80;99.90;;;;;;5021215;28;20932;-72
2024/02/27 06:17:01;;;;;;;35.63;23.57;;;5.70;99.90;;;;;;5028461;28;20223;-75
2024/02/27 06:19:27;;;;;;;29.70;20.63;;;5.70;99.90;;;;;;5018409;28;20447;-70
2024/02/27 06:22:14;;;;;;;31.10;21.43;;;5.80;99.90;;;;;;4993634;28;20455;-70
2024/02/27 06:24:40;;;;;;;32.00;21.70;;;5.80;99.90;;;;;;5022077;28;20210;-69
2024/02/27 06:27:08;;;;;;;30.53;21.83;;;5.80;99.90;;;;;;5018029;28;20437;-71
2024/02/27 06:29:34;;;;;;;35.03;23.33;;;5.80;99.90;;;;;;5002814;28;20417;-73
2024/02/27 06:31:59;;;;;;;30.10;21.03;;;5.70;99.90;;;;;;5028394;28;20760;-72
2024/02/27 06:34:26;;;;;;;31.40;22.70;;;5.70;99.90;;;;;;5026596;28;20418;-72
2024/02/27 06:36:53;;;;;;;33.17;23.23;;;5.70;99.90;;;;;;5023133;28;20230;-71
2024/02/27 06:39:19;;;;;;;31.17;22.13;;;5.70;99.90;;;;;;5023299;28;20429;-72
2024/02/27 06:41:50;;;;;;;32.70;21.37;;;5.80;99.90;;;;;;4986963;28;20443;-72
2024/02/27 06:44:17;;;;;;;30.70;21.97;;;5.80;99.90;;;;;;5021396;28;20469;-71
2024/02/27 06:46:42;;;;;;;32.50;22.90;;;5.80;99.90;;;;;;5023485;28;20454;-72
2024/02/27 06:49:08;;;;;;;32.23;22.87;;;5.80;99.90;;;;;;5020612;28;20425;-75
2024/02/27 06:51:33;;;;;;;33.70;22.07;;;5.80;99.90;;;;;;5016430;28;20278;-73
2024/02/27 06:53:59;;;;;;;32.67;22.50;;;5.90;99.90;;;;;;5021167;28;20198;-71
2024/02/27 06:56:25;;;;;;;28.33;20.77;;;5.90;99.90;;;;;;5022964;28;20219;-73
2024/02/27 06:58:52;;;;;;;29.50;22.13;;;5.90;99.90;;;;;;5020158;28;20191;-74
2024/02/27 07:01:18;;;;;;;35.77;23.03;;;6.00;99.90;;;;;;4996215;28;20198;-73
2024/02/27 07:03:44;;;;;;;28.43;20.40;;;6.00;99.90;;;;;;5013733;28;20423;-72
2024/02/27 07:06:09;;;;;;;31.67;21.93;;;6.10;99.90;;;;;;5018683;28;20574;-71
2024/02/27 07:08:35;;;;;;;27.50;21.20;;;6.10;99.90;;;;;;5021630;28;20450;-73
2024/02/27 07:11:01;;;;;;;29.40;20.00;;;6.20;99.90;;;;;;5000501;28;20195;-73
2024/02/27 07:13:26;;;;;;;34.30;24.67;;;6.20;99.90;;;;;;5022030;28;20234;-73
2024/02/27 07:15:52;;;;;;;30.50;22.30;;;6.30;99.90;;;;;;5021680;28;20215;-72
2024/02/27 07:18:19;;;;;;;31.90;22.10;;;6.30;99.90;;;;;;5019912;28;20205;-73
2024/02/27 07:20:45;;;;;;;29.57;21.10;;;6.40;99.90;;;;;;5016856;28;20183;-70
2024/02/27 07:23:12;;;;;;;28.23;20.10;;;6.40;99.90;;;;;;5018468;28;20528;-73
2024/02/27 07:25:38;;;;;;;29.50;20.90;;;6.40;99.90;;;;;;5021148;28;20512;-73
2024/02/27 07:28:04;;;;;;;29.97;20.70;;;6.40;99.90;;;;;;5020482;28;20425;-71
2024/02/27 07:30:29;;;;;;;31.87;21.83;;;6.40;99.90;;;;;;4996089;28;20206;-72
2024/02/27 07:32:55;;;;;;;32.70;22.03;;;6.40;99.90;;;;;;5019440;28;20714;-72
2024/02/27 07:35:21;;;;;;;33.33;23.37;;;6.40;99.90;;;;;;5014624;28;20612;-77
2024/02/27 07:37:46;;;;;;;28.40;21.27;;;6.30;99.90;;;;;;4992952;28;20210;-74
2024/02/27 07:40:12;;;;;;;29.27;21.17;;;6.30;99.90;;;;;;5021179;28;20215;-74
2024/02/27 07:42:38;;;;;;;32.87;23.90;;;6.30;99.90;;;;;;5020080;28;20218;-71
2024/02/27 07:45:05;;;;;;;33.53;24.10;;;6.30;99.90;;;;;;5021599;28;20405;-72
2024/02/27 07:47:31;;;;;;;30.40;22.60;;;6.30;99.90;;;;;;4987787;28;20612;-71
2024/02/27 07:49:57;;;;;;;32.60;21.87;;;6.30;99.90;;;;;;4991566;28;20429;-74
2024/02/27 07:52:23;;;;;;;30.30;22.07;;;6.30;99.90;;;;;;4997235;28;20553;-72
2024/02/27 07:54:49;;;;;;;32.60;22.80;;;6.40;99.90;;;;;;4979654;28;20218;-72
2024/02/27 07:57:15;;;;;;;28.60;21.97;;;6.40;99.90;;;;;;5020467;28;20277;-75
2024/02/27 07:59:40;;;;;;;33.83;22.53;;;6.50;99.90;;;;;;5020486;28;20418;-74
2024/02/27 08:02:06;;;;;;;35.07;24.30;;;6.60;99.90;;;;;;5000324;28;20183;-73
2024/02/27 08:04:31;;;;;;;30.40;22.00;;;6.70;99.90;;;;;;5012794;28;20194;-74
2024/02/27 08:06:57;;;;;;;31.47;22.20;;;6.80;99.90;;;;;;5020333;28;20270;-73
2024/02/27 08:09:24;;;;;;;32.97;24.60;;;6.80;99.90;;;;;;4992185;28;20459;-72
2024/02/27 08:11:50;;;;;;;31.20;23.47;;;6.80;99.90;;;;;;5012178;28;20206;-72
2024/02/27 08:14:16;;;;;;;32.43;24.07;;;6.80;99.90;;;;;;5018096;28;20484;-70
2024/02/27 08:16:42;;;;;;;29.90;22.70;;;6.80;99.90;;;;;;5015202;28;20660;-72
2024/02/27 08:19:07;;;;;;;34.73;24.33;;;6.90;99.90;;;;;;4992204;28;20458;-72
2024/02/27 08:21:33;;;;;;;32.13;22.30;;;6.90;99.90;;;;;;5017102;28;20209;-71
2024/02/27 08:24:00;;;;;;;32.13;22.30;;;6.90;99.90;;;;;;5020965;28;20187;-72
2024/02/27 08:26:26;;;;;;;29.70;22.00;;;6.90;99.90;;;;;;4998033;28;20454;-71
2024/02/27 08:28:52;;;;;;;30.88;23.30;;;6.90;99.90;;;;;;5017567;28;20418;-71
2024/02/27 08:31:19;;;;;;;32.13;23.20;;;7.00;99.90;;;;;;4985407;28;20199;-73
2024/02/27 08:33:45;;;;;;;37.20;23.87;;;7.10;99.90;;;;;;5018625;28;20464;-74
2024/02/27 08:36:10;;;;;;;34.50;25.77;;;7.10;99.90;;;;;;5020719;28;20560;-73
2024/02/27 08:38:36;;;;;;;37.13;26.87;;;7.10;99.90;;;;;;4987083;28;20521;-71
2024/02/27 08:41:02;;;;;;;34.27;24.50;;;7.10;99.90;;;;;;5021592;28;20187;-74
2024/02/27 08:43:27;;;;;;;33.93;24.90;;;7.10;99.90;;;;;;4989853;28;20273;-75
2024/02/27 08:45:53;;;;;;;30.70;21.10;;;7.20;99.90;;;;;;4983321;28;20274;-71
2024/02/27 08:48:19;;;;;;;34.90;24.73;;;7.30;99.90;;;;;;4995379;28;20602;-71
2024/02/27 08:50:47;;;;;;;33.63;24.87;;;7.50;99.90;;;;;;5018604;28;20230;-73
2024/02/27 08:53:13;;;;;;;32.50;24.30;;;7.60;99.90;;;;;;5020936;28;20191;-74
2024/02/27 08:55:40;;;;;;;32.87;23.93;;;7.60;99.90;;;;;;5020855;28;20442;-73
2024/02/27 08:58:06;;;;;;;32.53;23.40;;;7.60;99.90;;;;;;5019816;28;20471;-72
2024/02/27 09:00:32;;;;;;;34.93;24.17;;;7.60;99.90;;;;;;5022959;28;20429;-75
2024/02/27 09:03:01;;;;;;;34.90;25.07;;;7.60;99.90;;;;;;4964954;28;20488;-72
2024/02/27 09:05:27;;;;;;;31.53;23.00;;;7.70;99.90;;;;;;4991997;28;20498;-72
2024/02/27 09:07:53;;;;;;;30.60;22.07;;;7.70;99.90;;;;;;4994574;28;20438;-73
2024/02/27 09:10:19;;;;;;;30.80;22.00;;;7.80;99.90;;;;;;5020872;28;20426;-71
2024/02/27 09:12:45;;;;;;;32.67;23.10;;;7.80;99.90;;;;;;5023445;28;20476;-71
2024/02/27 09:15:11;;;;;;;31.67;23.53;;;7.80;99.90;;;;;;5020843;28;20183;-71
2024/02/27 09:17:38;;;;;;;28.87;21.37;;;7.80;99.90;;;;;;4990532;28;20301;-72
2024/02/27 09:20:04;;;;;;;29.80;22.10;;;7.90;99.90;;;;;;5017450;28;20834;-72
2024/02/27 09:22:31;;;;;;;29.03;21.70;;;7.90;99.90;;;;;;5016795;28;20182;-73
2024/02/27 09:24:57;;;;;;;27.80;20.90;;;8.00;99.90;;;;;;5021474;28;20445;-73
2024/02/27 09:27:23;;;;;;;27.90;21.40;;;8.10;99.90;;;;;;5000681;28;20715;-73
2024/02/27 09:29:52;;;;;;;30.37;20.73;;;8.20;99.90;;;;;;5023122;28;20426;-72
2024/02/27 09:32:22;;;;;;;28.37;21.97;;;8.30;99.90;;;;;;5024925;28;20187;-71
2024/02/27 09:34:49;;;;;;;23.73;19.30;;;8.40;99.90;;;;;;5023390;28;20426;-71
2024/02/27 09:37:15;;;;;;;28.70;22.40;;;8.50;99.90;;;;;;5022923;28;20565;-76
2024/02/27 09:39:41;;;;;;;28.73;20.37;;;8.60;99.90;;;;;;5001369;28;20462;-72
2024/02/27 09:42:09;;;;;;;25.40;19.53;;;8.80;99.90;;;;;;4997187;28;20411;-70
2024/02/27 09:44:41;;;;;;;27.40;20.30;;;8.80;99.90;;;;;;5022370;28;20557;-73
2024/02/27 09:47:08;;;;;;;30.30;20.77;;;8.90;99.90;;;;;;4980851;28;20467;-74
2024/02/27 09:49:41;;;;;;;27.57;20.53;;;9.00;99.90;;;;;;5015582;28;20425;-74
2024/02/27 09:52:10;;;;;;;22.83;18.30;;;9.20;99.90;;;;;;4995166;28;20507;-70
2024/02/27 09:54:37;;;;;;;28.23;19.23;;;9.30;99.90;;;;;;5023784;28;20485;-73
2024/02/27 09:57:04;;;;;;;25.63;20.20;;;9.40;99.90;;;;;;5024594;28;20473;-70
2024/02/27 09:59:30;;;;;;;24.00;19.90;;;9.60;99.90;;;;;;5022445;28;20489;-72
2024/02/27 10:02:03;;;;;;;24.87;19.57;;;9.50;99.90;;;;;;4999263;28;20418;-72
2024/02/27 10:04:30;;;;;;;27.00;19.70;;;9.60;99.90;;;;;;5001026;28;20889;-73
2024/02/27 10:06:58;;;;;;;23.80;18.60;;;9.70;99.90;;;;;;5003875;28;20590;-72
2024/02/27 10:09:26;;;;;;;25.33;19.00;;;9.90;99.90;;;;;;5007200;28;20833;-73
2024/02/27 10:11:52;;;;;;;22.17;18.00;;;10.10;99.90;;;;;;4998154;28;20419;-76
2024/02/27 10:14:29;;;;;;;22.70;17.97;;;10.20;99.90;;;;;;5008688;28;20426;-73
2024/02/27 10:16:56;;;;;;;19.40;16.33;;;10.20;99.90;;;;;;5022331;28;20480;-72
2024/02/27 10:19:21;;;;;;;19.88;17.77;;;10.20;99.90;;;;;;5015995;28;20443;-75
2024/02/27 10:21:47;;;;;;;20.20;16.50;;;10.30;99.90;;;;;;5004375;28;20206;-73
2024/02/27 10:24:24;;;;;;;21.60;16.70;;;10.30;99.90;;;;;;4981285;28;20175;-74
2024/02/27 10:26:54;;;;;;;22.27;16.97;;;10.30;99.90;;;;;;5024928;28;20641;-72
2024/02/27 10:29:24;;;;;;;22.87;16.80;;;10.20;99.90;;;;;;5004842;28;20965;-73
2024/02/27 10:31:50;;;;;;;23.60;16.60;;;10.20;99.90;;;;;;5022436;28;20434;-72
2024/02/27 10:34:17;;;;;;;23.13;16.87;;;10.20;99.90;;;;;;5013665;28;20497;-72
2024/02/27 10:36:43;;;;;;;22.43;18.67;;;10.30;99.90;;;;;;5023512;28;20496;-71
2024/02/27 10:39:10;;;;;;;24.10;18.00;;;10.40;99.90;;;;;;4998848;28;20730;-73
2024/02/27 10:41:39;;;;;;;23.50;19.27;;;10.60;99.90;;;;;;5021993;28;20257;-72
2024/02/27 10:44:08;;;;;;;26.13;18.87;;;10.60;99.90;;;;;;4994926;28;20419;-72
2024/02/27 10:46:37;;;;;;;24.70;19.97;;;10.60;99.90;;;;;;5024233;28;20461;-74
2024/02/27 10:49:07;;;;;;;24.57;17.67;;;10.60;99.90;;;;;;5019901;28;20434;-71
2024/02/27 10:51:34;;;;;;;25.47;16.70;;;10.70;99.90;;;;;;5007599;28;20460;-72
2024/02/27 10:54:02;;;;;;;25.00;17.00;;;10.70;99.90;;;;;;5024875;28;20437;-72
2024/02/27 10:56:28;;;;;;;24.20;18.03;;;10.70;99.90;;;;;;5025134;28;20461;-75
2024/02/27 10:58:54;;;;;;;18.90;15.27;;;10.80;99.90;;;;;;5025374;28;20705;-73
2024/02/27 11:01:22;;;;;;;26.03;17.60;;;10.80;99.70;;;;;;5024875;28;20224;-74
2024/02/27 11:03:52;;;;;;;22.90;18.93;;;10.70;99.90;;;;;;4999738;28;20445;-72
2024/02/27 11:06:26;;;;;;;23.10;17.10;;;10.60;99.90;;;;;;5000584;28;20453;-72
2024/02/27 11:09:03;;;;;;;25.27;19.63;;;10.60;99.90;;;;;;5024129;28;20619;-73
2024/02/27 11:11:29;;;;;;;22.50;16.93;;;10.60;99.90;;;;;;4996997;28;20941;-75
2024/02/27 11:14:04;;;;;;;27.00;18.90;;;10.60;99.90;;;;;;5027123;28;20422;-74
2024/02/27 11:16:32;;;;;;;24.80;18.20;;;10.60;99.90;;;;;;5024026;28;20473;-73
2024/02/27 11:19:08;;;;;;;26.80;18.07;;;10.60;99.70;;;;;;5021406;28;20903;-73
2024/02/27 11:21:34;;;;;;;22.35;18.83;;;10.40;99.80;;;;;;4988841;28;20432;-71
2024/02/27 11:24:00;;;;;;;25.43;18.87;;;10.30;99.90;;;;;;5011249;28;20203;-73
2024/02/27 11:26:26;;;;;;;19.07;16.40;;;10.00;99.90;;;;;;5023479;28;20438;-74
2024/02/27 11:28:52;;;;;;;23.63;17.57;;;9.90;99.90;;;;;;5025391;28;20516;-75
2024/02/27 11:31:20;;;;;;;24.77;19.50;;;9.90;99.90;;;;;;4997260;28;20278;-74
2024/02/27 11:33:56;;;;;;;24.77;18.90;;;10.00;99.90;;;;;;5023913;28;20454;-73
2024/02/27 11:36:23;;;;;;;23.10;17.90;;;10.10;99.90;;;;;;5029002;28;20489;-74
2024/02/27 11:38:50;;;;;;;20.00;16.20;;;10.10;99.90;;;;;;5026230;28;20609;-75
2024/02/27 11:41:22;;;;;;;24.47;17.67;;;10.10;99.90;;;;;;5015873;28;20430;-74
2024/02/27 11:43:50;;;;;;;25.83;18.40;;;10.20;99.90;;;;;;5023752;28;20415;-75
2024/02/27 11:46:31;;;;;;;24.97;18.07;;;10.10;99.90;;;;;;4991804;28;20943;-76
2024/02/27 11:48:58;;;;;;;27.97;17.60;;;10.20;99.90;;;;;;4997081;28;20500;-74
2024/02/27 11:51:25;;;;;;;22.70;16.80;;;10.30;99.20;;;;;;5021009;28;20451;-75
2024/02/27 11:53:52;;;;;;;19.37;14.77;;;10.30;99.40;;;;;;5023434;28;20434;-76
2024/02/27 11:56:18;;;;;;;19.20;15.33;;;10.50;99.80;;;;;;4986773;28;20529;-75
2024/02/27 11:58:47;;;;;;;22.43;17.50;;;10.60;99.50;;;;;;4986140;28;20426;-73
2024/02/27 12:01:16;;;;;;;19.67;16.50;;;10.70;98.80;;;;;;4999712;28;20437;-74
2024/02/27 12:03:46;;;;;;;20.40;16.40;;;10.60;99.00;;;;;;5020386;28;20413;-75
2024/02/27 12:06:13;;;;;;;23.87;19.60;;;10.70;99.00;;;;;;5001480;28;20553;-73
2024/02/27 12:08:48;;;;;;;20.67;17.20;;;10.70;98.80;;;;;;5021311;28;20433;-75
2024/02/27 12:11:18;;;;;;;26.40;17.00;;;10.60;99.10;;;;;;5026119;28;20449;-74
2024/02/27 12:13:48;;;;;;;22.47;19.10;;;10.60;99.60;;;;;;4994333;28;20588;-73
2024/02/27 12:16:25;;;;;;;23.70;19.23;;;10.70;99.60;;;;;;5021409;28;20525;-74
2024/02/27 12:18:52;;;;;;;23.33;19.30;;;10.60;99.00;;;;;;5021011;28;20739;-73
2024/02/27 12:21:31;;;;;;;26.60;19.60;;;10.60;98.90;;;;;;5022348;28;20418;-76
2024/02/27 12:24:15;;;;;;;25.10;20.27;;;10.50;99.00;;;;;;5019188;28;20786;-76
2024/02/27 12:26:42;;;;;;;24.47;20.40;;;10.50;99.50;;;;;;5023713;28;20450;-76
2024/02/27 12:29:12;;;;;;;22.97;17.53;;;10.60;99.40;;;;;;4973925;28;20429;-75
2024/02/27 12:31:38;;;;;;;21.17;17.93;;;10.80;98.70;;;;;;5002847;28;20441;-75
2024/02/27 12:34:08;;;;;;;24.30;18.90;;;10.80;98.90;;;;;;4997702;28;20926;-75